Time;durP1;ratioP1;P1;durP2;ratioP2;P2;SDS_P1;SDS_P2;PMS_P1;PMS_P2;Temp;Humidity;BMP_temperature;BMP_pressure;BME280_temperature;BME280_humidity;BME280_pressure;Samples;Min_cycle;Max_cycle;Signal;HPM_P1;HPM_P2
2021/12/13 00:03:57;;;;;;;43.10;25.37;;;;;9.80;102054.00;;;;10480595;28;20217;-78
2021/12/13 00:09:04;;;;;;;42.67;24.33;;;;;9.80;102052.00;;;;10470136;28;20199;-78
2021/12/13 00:14:11;;;;;;;40.50;24.67;;;;;9.80;102050.00;;;;10509076;28;20238;-78
2021/12/13 00:19:24;;;;;;;44.87;25.63;;;;;9.80;102047.00;;;;10527259;28;20197;-78
2021/12/13 00:24:31;;;;;;;42.27;25.53;;;;;9.70;102053.00;;;;10494480;28;20223;-79
2021/12/13 00:29:41;;;;;;;43.53;24.80;;;;;9.70;102048.00;;;;10512224;28;20189;-79
2021/12/13 00:34:48;;;;;;;40.77;24.83;;;;;9.70;102054.00;;;;10470785;28;20210;-78
2021/12/13 00:40:03;;;;;;;42.93;25.43;;;;;9.70;102055.00;;;;10488598;28;20709;-80
2021/12/13 00:45:09;;;;;;;42.27;24.10;;;;;9.70;102056.00;;;;10511548;28;20269;-79
2021/12/13 00:50:27;;;;;;;43.10;24.40;;;;;9.60;102048.00;;;;10494519;28;20201;-79
2021/12/13 00:55:32;;;;;;;46.40;25.47;;;;;9.60;102057.00;;;;10503468;28;20721;-79
2021/12/13 01:00:46;;;;;;;44.03;24.93;;;;;9.60;102057.00;;;;10476693;28;20246;-79
2021/12/13 01:06:11;;;;;;;40.23;23.33;;;;;9.60;102056.00;;;;10485715;28;20211;-79
2021/12/13 01:11:31;;;;;;;40.63;23.33;;;;;9.60;102056.00;;;;10485530;28;20243;-78
2021/12/13 01:16:52;;;;;;;38.77;22.83;;;;;9.50;102059.00;;;;10484540;28;20644;-78
2021/12/13 01:22:19;;;;;;;38.43;22.10;;;;;9.50;102065.00;;;;10508198;28;20254;-79
2021/12/13 01:27:37;;;;;;;37.27;23.80;;;;;9.50;102062.00;;;;10485368;28;20552;-79
2021/12/13 01:32:43;;;;;;;36.27;21.83;;;;;9.50;102064.00;;;;10493966;28;20212;-78
2021/12/13 01:37:53;;;;;;;34.30;21.57;;;;;9.50;102067.00;;;;10526107;28;20227;-79
2021/12/13 01:43:13;;;;;;;34.07;21.60;;;;;9.50;102065.00;;;;10509264;28;20208;-79
2021/12/13 01:48:21;;;;;;;36.97;21.43;;;;;9.40;102071.00;;;;10508744;28;20568;-79
2021/12/13 01:53:41;;;;;;;32.93;20.00;;;;;9.40;102074.00;;;;10492806;28;20315;-79
2021/12/13 01:58:43;;;;;;;33.83;20.87;;;;;9.40;102073.00;;;;10508007;28;20238;-79
2021/12/13 02:03:55;;;;;;;33.33;21.00;;;;;9.40;102070.00;;;;10476922;28;21663;-78
2021/12/13 02:09:02;;;;;;;32.10;19.53;;;;;9.40;102066.00;;;;10491613;28;20598;-78
2021/12/13 02:14:13;;;;;;;35.03;21.27;;;;;9.40;102069.00;;;;10505591;28;20189;-79
2021/12/13 02:19:21;;;;;;;30.33;18.90;;;;;9.40;102067.00;;;;10485524;28;20189;-79
2021/12/13 02:24:23;;;;;;;30.80;18.60;;;;;9.40;102062.00;;;;10491603;28;20205;-78
2021/12/13 02:29:35;;;;;;;34.83;18.93;;;;;9.40;102066.00;;;;10490909;28;20231;-78
2021/12/13 02:34:39;;;;;;;32.47;19.53;;;;;9.40;102079.00;;;;10494488;28;20216;-78
2021/12/13 02:39:45;;;;;;;33.50;18.03;;;;;9.40;102087.00;;;;10487308;28;20645;-79
2021/12/13 02:44:52;;;;;;;32.00;18.80;;;;;9.30;102066.00;;;;10476986;28;20251;-78
2021/12/13 02:49:56;;;;;;;33.77;18.60;;;;;9.30;102075.00;;;;10484146;28;20907;-78
2021/12/13 02:55:03;;;;;;;33.77;19.17;;;;;9.30;102075.00;;;;10506271;28;20576;-78
2021/12/13 03:00:25;;;;;;;35.53;19.03;;;;;9.30;102075.00;;;;10461663;28;20201;-78
2021/12/13 03:05:36;;;;;;;29.80;17.97;;;;;9.30;102077.00;;;;10449216;28;20225;-78
2021/12/13 03:10:44;;;;;;;29.03;17.60;;;;;9.30;102087.00;;;;10462935;28;20206;-78
2021/12/13 03:15:51;;;;;;;31.30;17.20;;;;;9.30;102089.00;;;;10457410;28;20197;-78
2021/12/13 03:20:56;;;;;;;33.03;19.60;;;;;9.30;102093.00;;;;10466989;28;20258;-79
2021/12/13 03:26:37;;;;;;;29.07;17.83;;;;;9.30;102084.00;;;;10466246;28;20288;-79
2021/12/13 03:31:44;;;;;;;24.93;15.23;;;;;9.30;102092.00;;;;10506272;28;20197;-78
2021/12/13 03:36:58;;;;;;;28.13;17.23;;;;;9.30;102101.00;;;;10488621;28;20280;-78
2021/12/13 03:42:05;;;;;;;27.97;17.53;;;;;9.30;102105.00;;;;10471060;28;20676;-78
2021/12/13 03:47:20;;;;;;;27.53;16.70;;;;;9.20;102103.00;;;;10438160;28;20197;-78
2021/12/13 03:52:26;;;;;;;27.40;16.57;;;;;9.20;102106.00;;;;10471175;28;20199;-78
2021/12/13 03:57:30;;;;;;;26.70;16.00;;;;;9.20;102109.00;;;;10499480;28;20246;-78
2021/12/13 04:02:36;;;;;;;26.77;16.47;;;;;9.20;102099.00;;;;10480636;28;20216;-79
2021/12/13 04:07:43;;;;;;;27.00;16.37;;;;;9.20;102098.00;;;;10483691;28;20292;-79
2021/12/13 04:12:50;;;;;;;27.80;16.73;;;;;9.30;102099.00;;;;10509204;28;20268;-79
2021/12/13 04:18:01;;;;;;;25.00;15.43;;;;;9.30;102101.00;;;;10529940;28;20270;-79
2021/12/13 04:23:09;;;;;;;25.53;15.07;;;;;9.30;102103.00;;;;10520658;28;20196;-78
2021/12/13 04:28:21;;;;;;;25.77;14.30;;;;;9.30;102096.00;;;;10521226;28;20735;-78
2021/12/13 04:33:37;;;;;;;25.27;15.37;;;;;9.30;102096.00;;;;10470489;28;20220;-78
2021/12/13 04:38:51;;;;;;;24.43;14.73;;;;;9.30;102097.00;;;;10511976;28;20249;-78
2021/12/13 04:43:56;;;;;;;23.30;15.53;;;;;9.30;102094.00;;;;10509433;28;20205;-78
2021/12/13 04:49:08;;;;;;;23.53;15.40;;;;;9.30;102093.00;;;;10496979;28;20602;-78
2021/12/13 04:54:12;;;;;;;23.90;14.50;;;;;9.30;102094.00;;;;10535915;28;20241;-78
2021/12/13 04:59:17;;;;;;;22.50;14.50;;;;;9.20;102106.00;;;;10474915;28;20182;-78
2021/12/13 05:04:21;;;;;;;23.07;13.87;;;;;9.20;102097.00;;;;10461280;28;20225;-78
2021/12/13 05:09:25;;;;;;;22.97;15.33;;;;;9.20;102107.00;;;;10503724;28;20200;-78
2021/12/13 05:14:45;;;;;;;21.77;14.57;;;;;9.20;102105.00;;;;10477814;28;20193;-78
2021/12/13 05:19:51;;;;;;;22.03;14.00;;;;;9.20;102104.00;;;;10493456;28;20195;-78
2021/12/13 05:24:59;;;;;;;22.23;13.53;;;;;9.20;102108.00;;;;10493654;28;20296;-78
2021/12/13 05:30:14;;;;;;;20.27;13.33;;;;;9.20;102114.00;;;;10484586;28;20192;-78
2021/12/13 05:35:45;;;;;;;23.00;13.13;;;;;9.20;102112.00;;;;10485625;28;20612;-78
2021/12/13 05:40:48;;;;;;;18.90;13.23;;;;;9.20;102117.00;;;;10491666;28;20200;-79
2021/12/13 05:46:01;;;;;;;21.50;12.57;;;;;9.20;102110.00;;;;10501646;28;20225;-79
2021/12/13 05:51:07;;;;;;;22.07;13.00;;;;;9.20;102099.00;;;;10484115;28;20250;-78
2021/12/13 05:56:16;;;;;;;19.77;12.93;;;;;9.20;102094.00;;;;10475674;28;20220;-79
2021/12/13 06:01:24;;;;;;;20.93;13.77;;;;;9.20;102092.00;;;;10499142;28;20208;-78
2021/12/13 06:06:28;;;;;;;20.20;13.33;;;;;9.20;102094.00;;;;10493731;28;20239;-78
2021/12/13 06:11:33;;;;;;;19.47;12.03;;;;;9.20;102081.00;;;;10485894;28;20239;-79
2021/12/13 06:16:48;;;;;;;19.90;12.33;;;;;9.10;102094.00;;;;10507206;28;20203;-78
2021/12/13 06:21:50;;;;;;;20.03;11.83;;;;;9.10;102106.00;;;;10482322;28;20196;-78
2021/12/13 06:27:13;;;;;;;17.00;11.33;;;;;9.20;102093.00;;;;10472569;28;20198;-79
2021/12/13 06:32:28;;;;;;;16.93;11.10;;;;;9.10;102105.00;;;;10496119;28;21077;-79
2021/12/13 06:37:35;;;;;;;17.23;10.27;;;;;9.10;102113.00;;;;10476143;28;20200;-78
2021/12/13 06:42:37;;;;;;;17.57;9.67;;;;;9.10;102103.00;;;;10462791;28;20577;-78
2021/12/13 06:47:48;;;;;;;13.00;8.80;;;;;9.20;102115.00;;;;10506546;28;20246;-78
2021/12/13 06:52:50;;;;;;;14.43;9.67;;;;;9.10;102125.00;;;;10470431;28;20849;-79
2021/12/13 06:57:58;;;;;;;14.33;9.07;;;;;9.10;102116.00;;;;10489987;28;20193;-78
2021/12/13 07:03:08;;;;;;;16.57;10.17;;;;;9.10;102109.00;;;;10483200;28;20711;-78
2021/12/13 07:08:19;;;;;;;15.03;9.30;;;;;9.10;102107.00;;;;10474365;28;20189;-78
2021/12/13 07:13:35;;;;;;;23.33;11.00;;;;;9.10;102125.00;;;;10484985;28;20203;-79
2021/12/13 07:18:57;;;;;;;14.43;9.27;;;;;9.10;102125.00;;;;10470833;28;20266;-78
2021/12/13 07:24:12;;;;;;;16.83;9.93;;;;;9.10;102129.00;;;;10448876;28;20255;-78
2021/12/13 07:29:22;;;;;;;13.80;9.07;;;;;9.10;102132.00;;;;10498695;28;20196;-78
2021/12/13 07:34:24;;;;;;;14.10;9.30;;;;;9.10;102128.00;;;;10470835;28;20259;-78
2021/12/13 07:39:30;;;;;;;12.13;8.47;;;;;9.10;102136.00;;;;10476113;28;20270;-78
2021/12/13 07:44:34;;;;;;;12.47;8.60;;;;;9.10;102147.00;;;;10463695;28;20672;-79
2021/12/13 07:49:42;;;;;;;23.50;9.10;;;;;9.10;102153.00;;;;10462977;28;20204;-79
2021/12/13 07:54:45;;;;;;;12.00;8.33;;;;;9.10;102157.00;;;;10458346;28;20190;-79
2021/12/13 07:59:48;;;;;;;15.87;8.43;;;;;9.10;102158.00;;;;10511698;28;20727;-79
2021/12/13 08:05:05;;;;;;;20.30;8.93;;;;;9.20;102150.00;;;;10495721;28;20664;-79
2021/12/13 08:10:19;;;;;;;14.23;9.17;;;;;9.20;102153.00;;;;10459616;28;20187;-79
2021/12/13 08:15:33;;;;;;;13.00;8.20;;;;;9.20;102160.00;;;;10468496;28;20205;-78
2021/12/13 08:20:42;;;;;;;12.93;7.97;;;;;9.20;102161.00;;;;10481091;28;20194;-79
2021/12/13 08:25:49;;;;;;;11.20;7.47;;;;;9.20;102168.00;;;;10479636;28;20208;-79
2021/12/13 08:30:56;;;;;;;11.43;6.90;;;;;9.20;102175.00;;;;10518248;28;20227;-79
2021/12/13 08:36:07;;;;;;;17.17;8.00;;;;;9.20;102156.00;;;;10511887;28;20209;-80
2021/12/13 08:41:33;;;;;;;12.57;7.53;;;;;9.20;102167.00;;;;10484766;28;20247;-79
2021/12/13 08:46:41;;;;;;;20.23;8.00;;;;;9.20;102165.00;;;;10512414;28;20572;-79
2021/12/13 08:52:02;;;;;;;9.77;6.87;;;;;9.30;102169.00;;;;10485134;28;20251;-78
2021/12/13 08:57:05;;;;;;;11.63;6.70;;;;;9.30;102180.00;;;;10519517;28;20209;-78
2021/12/13 09:02:09;;;;;;;10.20;6.47;;;;;9.40;102181.00;;;;10523086;28;20217;-79
2021/12/13 09:07:13;;;;;;;7.30;5.70;;;;;9.40;102192.00;;;;10500641;28;20204;-79
2021/12/13 09:12:47;;;;;;;9.37;6.33;;;;;9.40;102183.00;;;;10510855;28;20214;-79
2021/12/13 09:17:50;;;;;;;8.90;4.97;;;;;9.50;102191.00;;;;10491346;28;20193;-78
2021/12/13 09:23:05;;;;;;;6.43;4.97;;;;;9.50;102197.00;;;;10525616;28;20209;-78
2021/12/13 09:28:21;;;;;;;7.10;4.97;;;;;9.60;102199.00;;;;10507224;28;20337;-78
2021/12/13 09:33:36;;;;;;;6.63;5.20;;;;;9.60;102203.00;;;;10500171;28;20225;-78
2021/12/13 09:38:41;;;;;;;6.07;5.13;;;;;9.60;102211.00;;;;10478917;28;20652;-78
2021/12/13 09:43:49;;;;;;;8.00;5.17;;;;;9.70;102226.00;;;;10539581;28;20224;-78
2021/12/13 09:48:55;;;;;;;9.77;4.33;;;;;9.70;102229.00;;;;10508884;28;20189;-78
2021/12/13 09:54:01;;;;;;;7.13;4.80;;;;;9.70;102228.00;;;;10469360;28;20315;-78
2021/12/13 09:59:22;;;;;;;6.47;4.47;;;;;9.80;102228.00;;;;10449214;28;20190;-78
2021/12/13 10:04:36;;;;;;;5.80;3.80;;;;;9.80;102229.00;;;;10446077;28;20230;-78
2021/12/13 10:09:48;;;;;;;7.30;4.73;;;;;9.90;102226.00;;;;10440651;28;20202;-78
2021/12/13 10:15:09;;;;;;;6.10;4.10;;;;;9.90;102221.00;;;;10446825;28;20212;-78
2021/12/13 10:20:26;;;;;;;8.47;4.17;;;;;10.00;102214.00;;;;10467383;28;20636;-78
2021/12/13 10:25:32;;;;;;;6.17;4.00;;;;;10.10;102210.00;;;;10423723;28;20218;-78
2021/12/13 10:30:42;;;;;;;6.32;5.35;;;;;10.50;102244.00;;;;10463493;28;20436;-78
2021/12/13 10:35:49;;;;;;;8.53;3.87;;;;;10.30;102221.00;;;;10440631;28;20222;-78
2021/12/13 10:41:08;;;;;;;7.43;4.83;;;;;10.30;102224.00;;;;10443895;28;20205;-78
2021/12/13 10:46:14;;;;;;;4.83;3.30;;;;;10.40;102214.00;;;;10449212;28;20209;-78
2021/12/13 10:51:23;;;;;;;4.30;3.10;;;;;10.40;102217.00;;;;10480190;28;20198;-78
2021/12/13 10:56:29;;;;;;;5.10;3.47;;;;;10.40;102223.00;;;;10462231;28;20236;-78
2021/12/13 11:01:35;;;;;;;8.00;3.23;;;;;10.50;102221.00;;;;10473227;28;20208;-78
2021/12/13 11:06:42;;;;;;;4.27;3.13;;;;;10.50;102216.00;;;;10499626;28;20204;-77
2021/12/13 11:11:50;;;;;;;6.87;3.13;;;;;10.60;102225.00;;;;10452029;28;20185;-78
2021/12/13 11:16:58;;;;;;;3.30;3.00;;;;;10.60;102221.00;;;;10474498;28;20217;-78
2021/12/13 11:22:07;;;;;;;4.23;2.77;;;;;10.60;102212.00;;;;10489592;28;20193;-78
2021/12/13 11:27:15;;;;;;;4.97;2.97;;;;;10.60;102207.00;;;;10490468;28;20200;-79
2021/12/13 11:32:37;;;;;;;3.93;3.03;;;;;10.70;102203.00;;;;10471048;28;20224;-79
2021/12/13 11:38:01;;;;;;;4.03;3.10;;;;;10.70;102207.00;;;;10500506;28;20223;-78
2021/12/13 11:43:31;;;;;;;4.10;2.53;;;;;10.70;102212.00;;;;10456671;28;20216;-78
2021/12/13 11:48:42;;;;;;;5.53;2.43;;;;;10.70;102202.00;;;;10505080;28;20192;-78
2021/12/13 11:54:12;;;;;;;5.80;2.80;;;;;10.70;102212.00;;;;10470989;28;20189;-78
2021/12/13 11:59:29;;;;;;;4.33;2.83;;;;;10.80;102206.00;;;;10494831;28;20279;-78
2021/12/13 12:04:50;;;;;;;3.93;2.70;;;;;10.70;102200.00;;;;10517905;28;20303;-78
2021/12/13 12:10:25;;;;;;;3.30;2.53;;;;;10.70;102197.00;;;;10499178;28;20189;-78
2021/12/13 12:15:28;;;;;;;4.27;2.70;;;;;10.70;102199.00;;;;10453420;28;20192;-78
2021/12/13 12:20:40;;;;;;;4.37;2.60;;;;;10.60;102201.00;;;;10488063;28;20190;-78
2021/12/13 12:25:42;;;;;;;4.57;2.63;;;;;10.60;102192.00;;;;10481576;28;20250;-78
2021/12/13 12:30:49;;;;;;;4.27;2.43;;;;;10.60;102193.00;;;;10495657;28;20193;-77
2021/12/13 12:35:56;;;;;;;4.33;2.30;;;;;10.50;102197.00;;;;10540095;28;20228;-78
2021/12/13 12:41:06;;;;;;;10.13;3.03;;;;;10.50;102178.00;;;;10486623;28;20200;-78
2021/12/13 12:46:14;;;;;;;3.23;2.50;;;;;10.50;102191.00;;;;10503093;28;20896;-78
2021/12/13 12:51:30;;;;;;;5.33;2.60;;;;;10.50;102183.00;;;;10502619;28;20204;-79
2021/12/13 12:56:40;;;;;;;23.90;4.60;;;;;10.50;102174.00;;;;10486183;28;20532;-78
2021/12/13 13:01:47;;;;;;;7.83;2.73;;;;;10.50;102175.00;;;;10486223;28;20197;-79
2021/12/13 13:07:15;;;;;;;24.27;4.37;;;;;10.50;102180.00;;;;10478924;28;20197;-78
2021/12/13 13:12:29;;;;;;;7.00;2.73;;;;;10.50;102172.00;;;;10485969;28;20189;-79
2021/12/13 13:17:34;;;;;;;4.40;2.53;;;;;10.50;102178.00;;;;10452673;28;20611;-79
2021/12/13 13:22:41;;;;;;;4.60;2.70;;;;;10.40;102180.00;;;;10468909;28;20194;-79
2021/12/13 13:28:17;;;;;;;3.43;2.90;;;;;10.40;102170.00;;;;10500676;28;20633;-79
2021/12/13 13:33:41;;;;;;;4.37;2.67;;;;;10.40;102178.00;;;;10493980;28;20216;-79
2021/12/13 13:38:43;;;;;;;4.10;2.83;;;;;10.30;102175.00;;;;10512978;28;20192;-78
2021/12/13 13:43:47;;;;;;;6.77;2.37;;;;;10.30;102179.00;;;;10467068;28;20205;-79
2021/12/13 13:48:53;;;;;;;3.47;2.60;;;;;10.30;102173.00;;;;10485698;28;20698;-78
2021/12/13 13:53:55;;;;;;;5.57;2.37;;;;;10.20;102170.00;;;;10502323;28;20238;-78
2021/12/13 13:59:08;;;;;;;4.23;2.60;;;;;10.20;102170.00;;;;10491738;28;20245;-78
2021/12/13 14:04:28;;;;;;;3.93;3.10;;;;;10.20;102180.00;;;;10500600;28;20225;-79
2021/12/13 14:09:51;;;;;;;3.73;2.40;;;;;10.20;102180.00;;;;10472544;28;20226;-79
2021/12/13 14:14:59;;;;;;;4.00;2.30;;;;;10.20;102181.00;;;;10520404;28;20189;-78
2021/12/13 14:20:44;;;;;;;4.67;2.67;;;;;10.20;102188.00;;;;10471056;28;20185;-78
2021/12/13 14:26:01;;;;;;;4.37;3.27;;;;;10.10;102184.00;;;;10451281;28;20213;-78
2021/12/13 14:31:17;;;;;;;6.90;3.20;;;;;10.10;102180.00;;;;10466070;28;20684;-78
2021/12/13 14:36:26;;;;;;;5.30;3.30;;;;;10.10;102184.00;;;;10548494;28;20219;-78
2021/12/13 14:41:36;;;;;;;4.27;2.97;;;;;10.00;102181.00;;;;10526944;28;20203;-78
2021/12/13 14:46:45;;;;;;;4.83;3.30;;;;;10.00;102187.00;;;;10548366;28;20250;-79
2021/12/13 14:51:50;;;;;;;7.03;3.50;;;;;9.90;102190.00;;;;10515953;28;20181;-78
2021/12/13 14:56:56;;;;;;;4.17;2.73;;;;;9.90;102183.00;;;;10470610;28;20196;-78
2021/12/13 15:02:16;;;;;;;3.77;2.60;;;;;9.80;102185.00;;;;10457970;28;20197;-78
2021/12/13 15:07:23;;;;;;;6.30;3.53;;;;;9.80;102196.00;;;;10474622;28;20212;-78
2021/12/13 15:12:29;;;;;;;6.07;3.23;;;;;9.70;102201.00;;;;10453490;28;20194;-78
2021/12/13 15:17:44;;;;;;;7.27;3.30;;;;;9.60;102191.00;;;;10478777;28;20303;-78
2021/12/13 15:22:50;;;;;;;4.20;3.37;;;;;9.60;102198.00;;;;10464564;28;20259;-78
2021/12/13 15:27:52;;;;;;;7.37;4.17;;;;;9.60;102196.00;;;;10463051;28;20750;-78
2021/12/13 15:33:00;;;;;;;8.27;3.87;;;;;9.50;102200.00;;;;10464934;28;20758;-77
2021/12/13 15:38:08;;;;;;;6.53;3.87;;;;;9.40;102199.00;;;;10448202;28;20541;-77
2021/12/13 15:43:20;;;;;;;7.13;3.67;;;;;9.40;102206.00;;;;10489752;28;20287;-77
2021/12/13 15:53:48;;;;;;;7.20;4.70;;;;;9.30;102203.00;;;;10480585;28;20600;-76
2021/12/13 15:59:09;;;;;;;7.70;5.90;;;;;9.30;102203.00;;;;10489436;28;20205;-77
2021/12/13 16:04:27;;;;;;;10.10;6.33;;;;;9.20;102194.00;;;;10499004;28;20216;-77
2021/12/13 16:09:42;;;;;;;9.47;6.37;;;;;9.20;102206.00;;;;10510588;28;20189;-77
2021/12/13 16:14:48;;;;;;;8.77;6.20;;;;;9.20;102206.00;;;;10501856;28;20184;-77
2021/12/13 16:20:16;;;;;;;9.50;7.33;;;;;9.20;102209.00;;;;10504838;28;20250;-77
2021/12/13 16:25:30;;;;;;;12.03;7.53;;;;;9.20;102212.00;;;;10469951;28;20262;-77
2021/12/13 16:30:49;;;;;;;10.43;7.13;;;;;9.20;102212.00;;;;10467738;28;20189;-77
2021/12/13 16:35:56;;;;;;;10.07;6.40;;;;;9.10;102208.00;;;;10498201;28;20223;-77
2021/12/13 16:41:04;;;;;;;10.30;7.87;;;;;9.10;102204.00;;;;10475966;28;20190;-77
2021/12/13 16:46:08;;;;;;;11.10;7.40;;;;;9.10;102203.00;;;;10470699;28;20213;-77
2021/12/13 16:51:19;;;;;;;10.70;7.90;;;;;9.10;102193.00;;;;10503002;28;20626;-77
2021/12/13 16:56:24;;;;;;;10.37;7.13;;;;;9.10;102204.00;;;;10470489;28;20195;-77
2021/12/13 17:01:33;;;;;;;10.27;7.57;;;;;9.10;102210.00;;;;10479107;28;20233;-77
2021/12/13 17:07:02;;;;;;;12.33;6.67;;;;;9.10;102196.00;;;;10476053;28;20206;-77
2021/12/13 17:12:10;;;;;;;9.80;7.30;;;;;9.10;102200.00;;;;10470461;28;20201;-77
2021/12/13 17:17:15;;;;;;;7.83;6.43;;;;;9.00;102200.00;;;;10507350;28;20655;-77
2021/12/13 17:22:17;;;;;;;11.23;7.47;;;;;9.00;102213.00;;;;10508579;28;20250;-77
2021/12/13 17:27:25;;;;;;;9.57;7.27;;;;;9.00;102219.00;;;;10485398;28;20264;-77
2021/12/13 17:32:46;;;;;;;11.97;7.63;;;;;9.00;102210.00;;;;10451968;28;20217;-77
2021/12/13 17:37:52;;;;;;;10.00;7.30;;;;;9.00;102200.00;;;;10505731;28;20656;-77
2021/12/13 17:43:05;;;;;;;10.23;6.97;;;;;9.00;102200.00;;;;10498489;28;20189;-77
2021/12/13 17:48:08;;;;;;;7.97;7.17;;;;;9.00;102202.00;;;;10457932;28;20210;-77
2021/12/13 17:53:16;;;;;;;10.37;8.63;;;;;9.00;102197.00;;;;10508573;28;20197;-77
2021/12/13 17:58:21;;;;;;;9.10;7.93;;;;;9.00;102196.00;;;;10503366;28;20197;-77
2021/12/13 18:03:37;;;;;;;10.20;7.77;;;;;9.00;102192.00;;;;10486055;28;20201;-77
2021/12/13 18:09:15;;;;;;;12.37;8.20;;;;;9.00;102206.00;;;;10508948;28;20186;-77
2021/12/13 18:14:44;;;;;;;8.07;6.20;;;;;8.90;102205.00;;;;10490924;28;20181;-77
2021/12/13 18:20:34;;;;;;;7.80;5.23;;;;;8.90;102202.00;;;;10512718;28;20246;-77
2021/12/13 18:25:40;;;;;;;7.50;4.70;;;;;8.90;102206.00;;;;10503276;28;20240;-77
2021/12/13 18:30:59;;;;;;;6.47;4.10;;;;;8.90;102207.00;;;;10473267;28;20305;-77
2021/12/13 18:36:06;;;;;;;7.43;4.97;;;;;8.90;102207.00;;;;10490047;28;20254;-78
2021/12/13 18:41:33;;;;;;;9.57;4.50;;;;;8.90;102211.00;;;;10515592;28;20204;-77
2021/12/13 18:46:44;;;;;;;7.37;4.63;;;;;8.90;102199.00;;;;10488162;28;20223;-77
2021/12/13 18:51:55;;;;;;;8.00;5.13;;;;;8.90;102196.00;;;;10466080;28;20201;-78
2021/12/13 18:57:33;;;;;;;6.70;5.10;;;;;8.80;102203.00;;;;10474493;28;20185;-78
2021/12/13 19:02:40;;;;;;;5.27;4.50;;;;;8.80;102196.00;;;;10452424;28;20209;-77
2021/12/13 19:07:53;;;;;;;6.43;4.47;;;;;8.80;102205.00;;;;10513821;28;20295;-77
2021/12/13 19:12:55;;;;;;;8.53;4.50;;;;;8.80;102195.00;;;;10540048;28;20192;-77
2021/12/13 19:18:03;;;;;;;7.67;4.20;;;;;8.80;102194.00;;;;10495712;28;20177;-77
2021/12/13 19:23:13;;;;;;;7.10;4.83;;;;;8.70;102194.00;;;;10487061;28;20211;-77
2021/12/13 19:28:22;;;;;;;6.60;4.53;;;;;8.70;102192.00;;;;10481982;28;20196;-77
2021/12/13 19:33:43;;;;;;;5.50;4.87;;;;;8.70;102183.00;;;;10512588;28;20228;-78
2021/12/13 19:39:03;;;;;;;5.70;4.87;;;;;8.70;102175.00;;;;10465947;28;20188;-79
2021/12/13 19:44:20;;;;;;;7.97;6.13;;;;;8.70;102196.00;;;;10501346;28;20694;-77
2021/12/13 19:49:32;;;;;;;7.73;5.53;;;;;8.70;102202.00;;;;10471168;28;20205;-77
2021/12/13 19:54:41;;;;;;;8.43;5.57;;;;;8.70;102201.00;;;;10502027;28;20195;-77
2021/12/13 19:59:48;;;;;;;8.20;5.47;;;;;8.70;102195.00;;;;10492427;28;20242;-78
2021/12/13 20:05:02;;;;;;;7.43;5.57;;;;;8.70;102186.00;;;;10474296;28;20560;-77
2021/12/13 20:10:14;;;;;;;6.50;5.50;;;;;8.70;102185.00;;;;10509119;28;20223;-77
2021/12/13 20:15:38;;;;;;;6.83;4.90;;;;;8.70;102192.00;;;;10505710;28;20192;-77
2021/12/13 20:20:43;;;;;;;5.70;4.63;;;;;8.60;102183.00;;;;10493993;28;20207;-77
2021/12/13 20:25:51;;;;;;;5.50;4.00;;;;;8.60;102185.00;;;;10476677;28;20205;-76
2021/12/13 20:30:57;;;;;;;5.40;4.13;;;;;8.60;102179.00;;;;10464043;28;20216;-77
2021/12/13 20:36:07;;;;;;;6.40;4.00;;;;;8.60;102170.00;;;;10551647;28;20204;-77
2021/12/13 20:41:15;;;;;;;5.97;3.70;;;;;8.60;102174.00;;;;10453464;28;20189;-77
2021/12/13 20:46:26;;;;;;;4.60;3.53;;;;;8.60;102171.00;;;;10502503;28;20201;-76
2021/12/13 20:51:40;;;;;;;4.47;3.57;;;;;8.60;102172.00;;;;10462026;28;20297;-77
2021/12/13 20:56:45;;;;;;;5.27;3.90;;;;;8.60;102152.00;;;;10496618;28;20189;-77
2021/12/13 21:02:01;;;;;;;5.60;3.90;;;;;8.60;102150.00;;;;10458284;28;20248;-77
2021/12/13 21:07:12;;;;;;;4.97;3.03;;;;;8.50;102152.00;;;;10426980;28;20300;-77
2021/12/13 21:12:18;;;;;;;6.00;3.17;;;;;8.50;102161.00;;;;10466675;28;20251;-77
2021/12/13 21:17:28;;;;;;;6.97;3.53;;;;;8.50;102165.00;;;;10445355;28;20222;-77
2021/12/13 21:22:42;;;;;;;5.97;3.87;;;;;8.50;102160.00;;;;10485736;28;20633;-77
2021/12/13 21:27:50;;;;;;;6.87;3.60;;;;;8.50;102159.00;;;;10462105;28;20263;-77
2021/12/13 21:32:53;;;;;;;4.60;3.73;;;;;8.50;102159.00;;;;10423055;28;20214;-77
2021/12/13 21:43:26;;;;;;;6.33;4.13;;;;;8.40;102152.00;;;;10425029;28;20923;-77
2021/12/13 21:48:36;;;;;;;6.17;5.27;;;;;8.40;102165.00;;;;10455096;28;20210;-77
2021/12/13 21:54:07;;;;;;;6.57;5.43;;;;;8.40;102170.00;;;;10425321;28;20632;-77
2021/12/13 21:59:12;;;;;;;7.90;5.97;;;;;8.40;102175.00;;;;10457907;28;20198;-77
2021/12/13 22:04:28;;;;;;;6.70;5.20;;;;;8.40;102185.00;;;;10476533;28;20660;-77
2021/12/13 22:09:39;;;;;;;6.87;5.60;;;;;8.40;102202.00;;;;10529037;28;20667;-77
2021/12/13 22:14:54;;;;;;;7.20;6.17;;;;;8.40;102194.00;;;;10449536;28;20684;-77
2021/12/13 22:20:02;;;;;;;7.10;6.27;;;;;8.40;102183.00;;;;10491207;28;20218;-77
2021/12/13 22:25:10;;;;;;;7.87;6.57;;;;;8.30;102193.00;;;;10479287;28;20197;-77
2021/12/13 22:30:20;;;;;;;8.23;5.73;;;;;8.30;102204.00;;;;10506309;28;20185;-77
2021/12/13 22:35:26;;;;;;;9.23;6.80;;;;;8.30;102211.00;;;;10459503;28;20205;-77
2021/12/13 22:40:33;;;;;;;10.33;6.63;;;;;8.30;102222.00;;;;10459826;28;20567;-77
2021/12/13 22:45:37;;;;;;;9.93;6.63;;;;;8.30;102231.00;;;;10497707;28;20237;-77
2021/12/13 22:50:55;;;;;;;14.40;7.53;;;;;8.20;102240.00;;;;10514026;28;20686;-77
2021/12/13 22:56:02;;;;;;;15.57;7.90;;;;;8.20;102239.00;;;;10505723;28;20181;-77
2021/12/13 23:01:09;;;;;;;14.23;8.70;;;;;8.20;102235.00;;;;10503834;28;20664;-77
2021/12/13 23:06:15;;;;;;;15.93;8.73;;;;;8.10;102256.00;;;;10486211;28;20293;-77
2021/12/13 23:11:38;;;;;;;16.60;9.33;;;;;8.10;102249.00;;;;10475416;28;20592;-77
2021/12/13 23:16:49;;;;;;;19.83;9.77;;;;;8.00;102226.00;;;;10506126;28;20189;-77
2021/12/13 23:21:56;;;;;;;20.50;9.40;;;;;8.00;102229.00;;;;10506241;28;20661;-77
2021/12/13 23:27:10;;;;;;;20.37;11.77;;;;;7.90;102233.00;;;;10486951;28;20254;-77
2021/12/13 23:32:17;;;;;;;24.50;12.37;;;;;7.90;102237.00;;;;10505960;28;20262;-78
2021/12/13 23:37:20;;;;;;;20.73;11.80;;;;;7.90;102219.00;;;;10505695;28;20189;-77
2021/12/13 23:47:48;;;;;;;31.23;14.37;;;;;7.90;102209.00;;;;10504848;28;20208;-78
2021/12/13 23:52:55;;;;;;;25.50;13.87;;;;;7.90;102193.00;;;;10472085;28;20205;-78
2021/12/13 23:58:04;;;;;;;23.27;12.70;;;;;7.90;102198.00;;;;10505207;28;20192;-78
